sensor_id;sensor_type;location;lat;lon;timestamp;P1;durP1;ratioP1;P2;durP2;ratioP2
17965;SDS011;9108;53.204;10.424;2023-07-31T09:57:40;13.10;;;5.33;;
17965;SDS011;9108;53.204;10.424;2023-07-31T10:00:08;14.88;;;6.20;;
17965;SDS011;9108;53.204;10.424;2023-07-31T10:02:35;17.05;;;6.43;;
17965;SDS011;9108;53.204;10.424;2023-07-31T10:05:04;17.20;;;6.63;;
17965;SDS011;9108;53.204;10.424;2023-07-31T10:07:32;15.30;;;6.82;;
17965;SDS011;9108;53.204;10.424;2023-07-31T10:10:00;16.80;;;7.00;;
17965;SDS011;9108;53.204;10.424;2023-07-31T10:12:28;18.67;;;6.93;;
17965;SDS011;9108;53.204;10.424;2023-07-31T10:14:57;17.30;;;7.13;;
17965;SDS011;9108;53.204;10.424;2023-07-31T10:17:26;18.90;;;7.18;;
17965;SDS011;9108;53.204;10.424;2023-07-31T10:19:53;20.63;;;6.85;;
17965;SDS011;9108;53.204;10.424;2023-07-31T10:22:21;17.52;;;6.40;;
17965;SDS011;9108;53.204;10.424;2023-07-31T10:24:48;19.33;;;7.05;;
17965;SDS011;9108;53.204;10.424;2023-07-31T10:27:17;17.75;;;6.57;;
17965;SDS011;9108;53.204;10.424;2023-07-31T10:29:45;14.18;;;6.43;;
17965;SDS011;9108;53.204;10.424;2023-07-31T10:32:16;16.02;;;6.10;;
17965;SDS011;9108;53.204;10.424;2023-07-31T10:34:43;18.30;;;6.20;;
17965;SDS011;9108;53.204;10.424;2023-07-31T10:37:21;16.40;;;6.50;;
17965;SDS011;9108;53.204;10.424;2023-07-31T10:39:55;14.05;;;6.28;;
17965;SDS011;9108;53.204;10.424;2023-07-31T10:42:32;15.80;;;6.05;;
17965;SDS011;9108;53.204;10.424;2023-07-31T10:45:01;17.92;;;6.35;;
17965;SDS011;9108;53.204;10.424;2023-07-31T10:47:29;15.70;;;6.53;;
17965;SDS011;9108;53.204;10.424;2023-07-31T10:52:49;15.70;;;6.30;;
17965;SDS011;9108;53.204;10.424;2023-07-31T10:55:27;16.00;;;6.10;;
17965;SDS011;9108;53.204;10.424;2023-07-31T10:57:54;15.65;;;5.90;;
17965;SDS011;9108;53.204;10.424;2023-07-31T11:00:26;15.13;;;5.75;;
17965;SDS011;9108;53.204;10.424;2023-07-31T11:03:02;15.90;;;5.87;;
17965;SDS011;9108;53.204;10.424;2023-07-31T11:05:43;13.40;;;5.40;;
17965;SDS011;9108;53.204;10.424;2023-07-31T11:08:16;13.88;;;5.47;;
17965;SDS011;9108;53.204;10.424;2023-07-31T11:11:07;12.38;;;4.90;;
17965;SDS011;9108;53.204;10.424;2023-07-31T11:13:41;12.88;;;5.07;;
17965;SDS011;9108;53.204;10.424;2023-07-31T11:16:08;14.30;;;4.90;;
17965;SDS011;9108;53.204;10.424;2023-07-31T11:18:37;11.90;;;5.00;;
17965;SDS011;9108;53.204;10.424;2023-07-31T11:21:05;12.60;;;5.00;;
17965;SDS011;9108;53.204;10.424;2023-07-31T11:23:32;9.50;;;4.38;;
17965;SDS011;9108;53.204;10.424;2023-07-31T11:26:00;11.60;;;3.90;;
17965;SDS011;9108;53.204;10.424;2023-07-31T11:28:31;13.85;;;4.00;;
17965;SDS011;9108;53.204;10.424;2023-07-31T11:31:00;10.00;;;3.73;;
17965;SDS011;9108;53.204;10.424;2023-07-31T11:33:27;9.00;;;3.30;;
17965;SDS011;9108;53.204;10.424;2023-07-31T11:35:56;9.35;;;3.80;;
17965;SDS011;9108;53.204;10.424;2023-07-31T11:38:25;7.68;;;3.42;;
17965;SDS011;9108;53.204;10.424;2023-07-31T11:40:53;8.25;;;3.13;;
17965;SDS011;9108;53.204;10.424;2023-07-31T11:43:21;7.03;;;3.20;;
17965;SDS011;9108;53.204;10.424;2023-07-31T11:45:51;5.47;;;2.67;;
17965;SDS011;9108;53.204;10.424;2023-07-31T11:48:23;7.45;;;2.70;;
17965;SDS011;9108;53.204;10.424;2023-07-31T11:51:06;7.60;;;3.00;;
17965;SDS011;9108;53.204;10.424;2023-07-31T11:53:36;5.67;;;2.60;;
17965;SDS011;9108;53.204;10.424;2023-07-31T11:56:08;5.70;;;2.53;;
17965;SDS011;9108;53.204;10.424;2023-07-31T11:58:38;6.70;;;2.78;;
17965;SDS011;9108;53.204;10.424;2023-07-31T12:01:06;4.70;;;2.60;;
17965;SDS011;9108;53.204;10.424;2023-07-31T12:03:33;4.68;;;2.22;;
17965;SDS011;9108;53.204;10.424;2023-07-31T12:06:02;5.95;;;2.50;;
17965;SDS011;9108;53.204;10.424;2023-07-31T12:08:32;4.83;;;2.33;;
17965;SDS011;9108;53.204;10.424;2023-07-31T12:11:02;6.60;;;2.60;;
17965;SDS011;9108;53.204;10.424;2023-07-31T12:13:30;4.30;;;2.40;;
17965;SDS011;9108;53.204;10.424;2023-07-31T12:15:58;4.63;;;2.30;;
17965;SDS011;9108;53.204;10.424;2023-07-31T12:18:27;4.55;;;2.25;;
17965;SDS011;9108;53.204;10.424;2023-07-31T12:20:55;3.13;;;2.20;;
17965;SDS011;9108;53.204;10.424;2023-07-31T12:23:28;3.65;;;2.00;;
17965;SDS011;9108;53.204;10.424;2023-07-31T12:26:09;4.30;;;2.13;;
17965;SDS011;9108;53.204;10.424;2023-07-31T12:28:46;3.83;;;2.15;;
17965;SDS011;9108;53.204;10.424;2023-07-31T12:31:25;3.33;;;2.03;;
17965;SDS011;9108;53.204;10.424;2023-07-31T12:33:57;3.90;;;1.95;;
17965;SDS011;9108;53.204;10.424;2023-07-31T12:36:36;3.42;;;1.98;;
17965;SDS011;9108;53.204;10.424;2023-07-31T12:39:09;3.13;;;2.05;;
17965;SDS011;9108;53.204;10.424;2023-07-31T12:44:49;3.90;;;2.00;;
17965;SDS011;9108;53.204;10.424;2023-07-31T12:47:39;4.65;;;2.00;;
17965;SDS011;9108;53.204;10.424;2023-07-31T12:50:19;3.60;;;1.88;;
17965;SDS011;9108;53.204;10.424;2023-07-31T12:52:47;2.83;;;2.00;;
17965;SDS011;9108;53.204;10.424;2023-07-31T12:55:16;2.35;;;1.90;;
17965;SDS011;9108;53.204;10.424;2023-07-31T12:57:44;3.40;;;2.00;;
17965;SDS011;9108;53.204;10.424;2023-07-31T13:00:15;2.92;;;2.13;;
17965;SDS011;9108;53.204;10.424;2023-07-31T13:02:43;3.17;;;2.10;;
17965;SDS011;9108;53.204;10.424;2023-07-31T13:05:10;4.22;;;2.17;;
17965;SDS011;9108;53.204;10.424;2023-07-31T13:07:38;3.15;;;1.90;;
17965;SDS011;9108;53.204;10.424;2023-07-31T13:10:06;4.28;;;2.13;;
17965;SDS011;9108;53.204;10.424;2023-07-31T13:12:33;2.72;;;2.10;;
17965;SDS011;9108;53.204;10.424;2023-07-31T13:15:00;3.05;;;2.20;;
17965;SDS011;9108;53.204;10.424;2023-07-31T13:17:29;3.33;;;2.13;;
17965;SDS011;9108;53.204;10.424;2023-07-31T13:19:56;4.25;;;2.35;;
17965;SDS011;9108;53.204;10.424;2023-07-31T13:22:23;3.97;;;2.45;;
17965;SDS011;9108;53.204;10.424;2023-07-31T13:24:51;6.45;;;2.65;;
17965;SDS011;9108;53.204;10.424;2023-07-31T13:27:18;3.75;;;2.30;;
17965;SDS011;9108;53.204;10.424;2023-07-31T13:29:46;3.85;;;2.10;;
17965;SDS011;9108;53.204;10.424;2023-07-31T13:32:17;3.00;;;2.38;;
17965;SDS011;9108;53.204;10.424;2023-07-31T13:34:48;3.25;;;2.10;;
17965;SDS011;9108;53.204;10.424;2023-07-31T13:37:15;4.00;;;2.30;;
17965;SDS011;9108;53.204;10.424;2023-07-31T13:39:43;4.10;;;2.40;;
17965;SDS011;9108;53.204;10.424;2023-07-31T13:42:13;3.05;;;2.22;;
17965;SDS011;9108;53.204;10.424;2023-07-31T13:44:43;4.20;;;2.50;;
17965;SDS011;9108;53.204;10.424;2023-07-31T13:47:12;3.08;;;2.30;;
17965;SDS011;9108;53.204;10.424;2023-07-31T13:49:40;4.03;;;2.42;;
17965;SDS011;9108;53.204;10.424;2023-07-31T13:52:09;4.18;;;2.50;;
17965;SDS011;9108;53.204;10.424;2023-07-31T13:54:37;2.92;;;2.00;;
17965;SDS011;9108;53.204;10.424;2023-07-31T13:57:08;2.83;;;1.80;;
17965;SDS011;9108;53.204;10.424;2023-07-31T13:59:35;2.40;;;1.60;;
17965;SDS011;9108;53.204;10.424;2023-07-31T14:02:03;1.85;;;1.30;;
17965;SDS011;9108;53.204;10.424;2023-07-31T14:04:30;2.28;;;1.35;;
17965;SDS011;9108;53.204;10.424;2023-07-31T14:06:59;1.60;;;1.42;;
17965;SDS011;9108;53.204;10.424;2023-07-31T14:09:28;2.10;;;1.50;;
17965;SDS011;9108;53.204;10.424;2023-07-31T14:11:55;2.25;;;1.65;;
17965;SDS011;9108;53.204;10.424;2023-07-31T14:14:25;3.35;;;2.00;;
17965;SDS011;9108;53.204;10.424;2023-07-31T14:16:52;2.72;;;2.00;;
17965;SDS011;9108;53.204;10.424;2023-07-31T14:19:19;2.95;;;1.90;;
17965;SDS011;9108;53.204;10.424;2023-07-31T14:21:47;3.08;;;2.28;;
17965;SDS011;9108;53.204;10.424;2023-07-31T14:24:14;3.60;;;2.70;;
17965;SDS011;9108;53.204;10.424;2023-07-31T14:26:42;4.75;;;2.65;;
17965;SDS011;9108;53.204;10.424;2023-07-31T14:29:10;3.85;;;2.60;;
17965;SDS011;9108;53.204;10.424;2023-07-31T14:31:37;4.00;;;2.70;;
17965;SDS011;9108;53.204;10.424;2023-07-31T14:34:12;3.50;;;2.80;;
17965;SDS011;9108;53.204;10.424;2023-07-31T14:36:43;3.90;;;2.80;;
17965;SDS011;9108;53.204;10.424;2023-07-31T14:39:11;5.80;;;3.10;;
17965;SDS011;9108;53.204;10.424;2023-07-31T14:41:38;3.17;;;2.70;;
17965;SDS011;9108;53.204;10.424;2023-07-31T14:44:06;4.95;;;2.70;;
17965;SDS011;9108;53.204;10.424;2023-07-31T14:46:34;6.57;;;2.92;;
17965;SDS011;9108;53.204;10.424;2023-07-31T14:49:01;3.70;;;2.65;;
17965;SDS011;9108;53.204;10.424;2023-07-31T14:51:28;3.97;;;2.88;;
17965;SDS011;9108;53.204;10.424;2023-07-31T14:53:55;4.70;;;2.90;;
17965;SDS011;9108;53.204;10.424;2023-07-31T14:56:22;5.63;;;2.83;;
17965;SDS011;9108;53.204;10.424;2023-07-31T14:58:51;6.95;;;3.30;;
17965;SDS011;9108;53.204;10.424;2023-07-31T15:01:20;4.50;;;3.10;;
17965;SDS011;9108;53.204;10.424;2023-07-31T15:03:47;3.90;;;3.00;;
17965;SDS011;9108;53.204;10.424;2023-07-31T15:06:17;4.03;;;3.10;;
17965;SDS011;9108;53.204;10.424;2023-07-31T15:08:47;3.83;;;3.00;;
17965;SDS011;9108;53.204;10.424;2023-07-31T15:11:14;3.45;;;2.90;;
17965;SDS011;9108;53.204;10.424;2023-07-31T15:13:43;6.13;;;3.50;;
17965;SDS011;9108;53.204;10.424;2023-07-31T15:16:10;4.95;;;3.30;;
17965;SDS011;9108;53.204;10.424;2023-07-31T15:18:39;4.53;;;3.10;;
17965;SDS011;9108;53.204;10.424;2023-07-31T15:21:06;5.07;;;3.33;;
17965;SDS011;9108;53.204;10.424;2023-07-31T15:23:34;3.92;;;3.10;;
17965;SDS011;9108;53.204;10.424;2023-07-31T15:26:03;4.30;;;3.25;;
17965;SDS011;9108;53.204;10.424;2023-07-31T15:28:31;3.63;;;2.90;;
17965;SDS011;9108;53.204;10.424;2023-07-31T15:31:04;5.20;;;3.00;;
17965;SDS011;9108;53.204;10.424;2023-07-31T15:33:40;4.53;;;3.23;;
17965;SDS011;9108;53.204;10.424;2023-07-31T15:36:17;4.67;;;3.10;;
17965;SDS011;9108;53.204;10.424;2023-07-31T15:38:48;4.83;;;3.20;;
17965;SDS011;9108;53.204;10.424;2023-07-31T15:41:17;5.00;;;3.20;;
17965;SDS011;9108;53.204;10.424;2023-07-31T15:43:46;4.50;;;2.90;;
17965;SDS011;9108;53.204;10.424;2023-07-31T15:46:13;4.00;;;3.00;;
17965;SDS011;9108;53.204;10.424;2023-07-31T15:48:49;4.50;;;3.30;;
17965;SDS011;9108;53.204;10.424;2023-07-31T15:51:19;5.73;;;3.30;;
17965;SDS011;9108;53.204;10.424;2023-07-31T15:53:47;4.90;;;3.40;;
17965;SDS011;9108;53.204;10.424;2023-07-31T15:56:28;3.63;;;3.07;;
17965;SDS011;9108;53.204;10.424;2023-07-31T15:58:58;5.60;;;2.93;;
17965;SDS011;9108;53.204;10.424;2023-07-31T16:01:28;3.97;;;3.03;;
17965;SDS011;9108;53.204;10.424;2023-07-31T16:04:04;5.07;;;3.07;;
17965;SDS011;9108;53.204;10.424;2023-07-31T16:06:31;7.03;;;3.23;;
17965;SDS011;9108;53.204;10.424;2023-07-31T16:08:59;5.33;;;3.10;;
17965;SDS011;9108;53.204;10.424;2023-07-31T16:11:26;4.40;;;3.13;;
17965;SDS011;9108;53.204;10.424;2023-07-31T16:13:53;5.03;;;2.90;;
17965;SDS011;9108;53.204;10.424;2023-07-31T16:16:20;6.20;;;3.03;;
17965;SDS011;9108;53.204;10.424;2023-07-31T16:18:50;4.53;;;2.93;;
17965;SDS011;9108;53.204;10.424;2023-07-31T16:21:19;3.07;;;2.77;;
17965;SDS011;9108;53.204;10.424;2023-07-31T16:23:50;4.57;;;2.70;;
17965;SDS011;9108;53.204;10.424;2023-07-31T16:26:32;5.20;;;2.80;;
17965;SDS011;9108;53.204;10.424;2023-07-31T16:28:59;5.90;;;3.10;;
17965;SDS011;9108;53.204;10.424;2023-07-31T16:31:27;5.30;;;3.30;;
17965;SDS011;9108;53.204;10.424;2023-07-31T16:33:54;5.97;;;3.20;;
17965;SDS011;9108;53.204;10.424;2023-07-31T16:36:25;6.77;;;3.13;;
17965;SDS011;9108;53.204;10.424;2023-07-31T16:38:56;3.90;;;3.00;;
17965;SDS011;9108;53.204;10.424;2023-07-31T16:41:23;4.33;;;2.90;;
17965;SDS011;9108;53.204;10.424;2023-07-31T16:43:52;4.60;;;3.10;;
17965;SDS011;9108;53.204;10.424;2023-07-31T16:46:20;8.27;;;3.60;;
17965;SDS011;9108;53.204;10.424;2023-07-31T16:48:47;5.47;;;3.27;;
17965;SDS011;9108;53.204;10.424;2023-07-31T16:51:14;6.47;;;3.50;;
17965;SDS011;9108;53.204;10.424;2023-07-31T16:53:43;5.87;;;3.70;;
17965;SDS011;9108;53.204;10.424;2023-07-31T16:56:10;6.50;;;4.20;;
17965;SDS011;9108;53.204;10.424;2023-07-31T16:58:47;6.60;;;4.23;;
17965;SDS011;9108;53.204;10.424;2023-07-31T17:01:27;7.43;;;4.50;;
17965;SDS011;9108;53.204;10.424;2023-07-31T17:03:57;6.13;;;4.60;;
17965;SDS011;9108;53.204;10.424;2023-07-31T17:06:31;9.00;;;4.97;;
17965;SDS011;9108;53.204;10.424;2023-07-31T17:08:59;7.63;;;4.67;;
17965;SDS011;9108;53.204;10.424;2023-07-31T17:11:28;6.67;;;4.83;;
17965;SDS011;9108;53.204;10.424;2023-07-31T17:13:58;6.70;;;4.53;;
17965;SDS011;9108;53.204;10.424;2023-07-31T17:16:28;7.10;;;4.67;;
17965;SDS011;9108;53.204;10.424;2023-07-31T17:18:59;6.10;;;4.60;;
17965;SDS011;9108;53.204;10.424;2023-07-31T17:21:59;6.47;;;4.93;;
17965;SDS011;9108;53.204;10.424;2023-07-31T17:24:28;8.20;;;4.93;;
17965;SDS011;9108;53.204;10.424;2023-07-31T17:26:55;8.70;;;5.47;;
17965;SDS011;9108;53.204;10.424;2023-07-31T17:29:26;8.20;;;5.90;;
17965;SDS011;9108;53.204;10.424;2023-07-31T17:32:31;8.50;;;6.20;;
17965;SDS011;9108;53.204;10.424;2023-07-31T17:34:42;9.90;;;6.43;;
17965;SDS011;9108;53.204;10.424;2023-07-31T17:37:11;9.90;;;6.20;;
17965;SDS011;9108;53.204;10.424;2023-07-31T17:39:49;9.90;;;6.40;;
17965;SDS011;9108;53.204;10.424;2023-07-31T17:42:19;9.20;;;6.20;;
17965;SDS011;9108;53.204;10.424;2023-07-31T17:44:49;9.07;;;6.50;;
17965;SDS011;9108;53.204;10.424;2023-07-31T17:47:16;10.77;;;7.13;;
17965;SDS011;9108;53.204;10.424;2023-07-31T17:49:43;11.67;;;6.77;;
17965;SDS011;9108;53.204;10.424;2023-07-31T17:52:24;10.53;;;6.80;;
17965;SDS011;9108;53.204;10.424;2023-07-31T17:54:55;14.90;;;7.30;;
17965;SDS011;9108;53.204;10.424;2023-07-31T17:57:22;11.83;;;7.10;;
17965;SDS011;9108;53.204;10.424;2023-07-31T17:59:49;9.07;;;6.83;;
17965;SDS011;9108;53.204;10.424;2023-07-31T18:02:19;12.17;;;7.27;;
17965;SDS011;9108;53.204;10.424;2023-07-31T18:04:46;13.57;;;7.37;;
17965;SDS011;9108;53.204;10.424;2023-07-31T18:07:16;10.50;;;7.23;;
17965;SDS011;9108;53.204;10.424;2023-07-31T18:09:43;12.30;;;7.50;;
17965;SDS011;9108;53.204;10.424;2023-07-31T18:12:12;9.93;;;7.03;;
17965;SDS011;9108;53.204;10.424;2023-07-31T18:14:41;11.77;;;7.57;;
17965;SDS011;9108;53.204;10.424;2023-07-31T18:17:10;10.37;;;6.70;;
17965;SDS011;9108;53.204;10.424;2023-07-31T18:19:38;11.80;;;7.13;;
17965;SDS011;9108;53.204;10.424;2023-07-31T18:22:05;10.50;;;7.23;;
17965;SDS011;9108;53.204;10.424;2023-07-31T18:24:32;11.63;;;7.37;;
17965;SDS011;9108;53.204;10.424;2023-07-31T18:26:59;11.07;;;7.07;;
17965;SDS011;9108;53.204;10.424;2023-07-31T18:29:28;9.93;;;7.30;;
17965;SDS011;9108;53.204;10.424;2023-07-31T18:31:56;13.55;;;8.15;;
17965;SDS011;9108;53.204;10.424;2023-07-31T18:34:23;10.07;;;7.53;;
17965;SDS011;9108;53.204;10.424;2023-07-31T18:36:50;12.52;;;7.25;;
17965;SDS011;9108;53.204;10.424;2023-07-31T18:39:17;11.63;;;7.20;;
17965;SDS011;9108;53.204;10.424;2023-07-31T18:41:44;10.73;;;7.18;;
17965;SDS011;9108;53.204;10.424;2023-07-31T18:44:11;8.70;;;6.77;;
17965;SDS011;9108;53.204;10.424;2023-07-31T18:46:40;11.77;;;6.90;;
17965;SDS011;9108;53.204;10.424;2023-07-31T18:49:07;9.97;;;6.80;;
17965;SDS011;9108;53.204;10.424;2023-07-31T18:51:34;12.03;;;6.80;;
17965;SDS011;9108;53.204;10.424;2023-07-31T18:54:06;10.63;;;6.90;;
17965;SDS011;9108;53.204;10.424;2023-07-31T18:56:33;10.33;;;6.87;;
17965;SDS011;9108;53.204;10.424;2023-07-31T18:59:00;11.20;;;7.20;;
17965;SDS011;9108;53.204;10.424;2023-07-31T19:01:28;9.37;;;7.03;;
17965;SDS011;9108;53.204;10.424;2023-07-31T19:03:56;17.70;;;7.83;;
17965;SDS011;9108;53.204;10.424;2023-07-31T19:06:25;12.77;;;7.70;;
17965;SDS011;9108;53.204;10.424;2023-07-31T19:08:52;11.33;;;7.87;;
17965;SDS011;9108;53.204;10.424;2023-07-31T19:11:19;10.83;;;7.20;;
17965;SDS011;9108;53.204;10.424;2023-07-31T19:13:46;11.97;;;8.40;;
17965;SDS011;9108;53.204;10.424;2023-07-31T19:16:14;10.87;;;7.63;;
17965;SDS011;9108;53.204;10.424;2023-07-31T19:18:41;13.60;;;8.07;;
17965;SDS011;9108;53.204;10.424;2023-07-31T19:21:10;12.40;;;8.33;;
17965;SDS011;9108;53.204;10.424;2023-07-31T19:23:37;13.20;;;8.00;;
17965;SDS011;9108;53.204;10.424;2023-07-31T19:26:04;11.33;;;7.97;;
17965;SDS011;9108;53.204;10.424;2023-07-31T19:28:31;13.83;;;8.17;;
17965;SDS011;9108;53.204;10.424;2023-07-31T19:30:58;17.73;;;9.00;;
17965;SDS011;9108;53.204;10.424;2023-07-31T19:33:25;12.30;;;8.50;;
17965;SDS011;9108;53.204;10.424;2023-07-31T19:35:53;14.20;;;9.07;;
17965;SDS011;9108;53.204;10.424;2023-07-31T19:38:22;16.13;;;9.00;;
17965;SDS011;9108;53.204;10.424;2023-07-31T19:40:50;15.83;;;9.07;;
17965;SDS011;9108;53.204;10.424;2023-07-31T19:43:25;13.97;;;9.63;;
17965;SDS011;9108;53.204;10.424;2023-07-31T19:45:53;16.23;;;10.03;;
17965;SDS011;9108;53.204;10.424;2023-07-31T19:48:20;16.83;;;10.33;;
17965;SDS011;9108;53.204;10.424;2023-07-31T19:50:47;17.80;;;10.10;;
17965;SDS011;9108;53.204;10.424;2023-07-31T19:53:17;16.97;;;9.60;;
17965;SDS011;9108;53.204;10.424;2023-07-31T19:55:46;17.10;;;9.63;;
17965;SDS011;9108;53.204;10.424;2023-07-31T19:58:14;13.37;;;8.10;;
17965;SDS011;9108;53.204;10.424;2023-07-31T20:00:41;15.03;;;7.97;;
17965;SDS011;9108;53.204;10.424;2023-07-31T20:03:08;15.35;;;9.68;;
17965;SDS011;9108;53.204;10.424;2023-07-31T20:05:35;12.73;;;8.88;;
17965;SDS011;9108;53.204;10.424;2023-07-31T20:08:03;13.47;;;8.63;;
17965;SDS011;9108;53.204;10.424;2023-07-31T20:10:31;11.63;;;7.47;;
17965;SDS011;9108;53.204;10.424;2023-07-31T20:13:00;11.00;;;7.00;;
17965;SDS011;9108;53.204;10.424;2023-07-31T20:15:27;10.37;;;6.70;;
17965;SDS011;9108;53.204;10.424;2023-07-31T20:17:54;11.27;;;6.55;;
17965;SDS011;9108;53.204;10.424;2023-07-31T20:20:22;13.73;;;6.55;;
17965;SDS011;9108;53.204;10.424;2023-07-31T20:22:49;9.52;;;6.05;;
17965;SDS011;9108;53.204;10.424;2023-07-31T20:25:16;9.27;;;5.55;;
17965;SDS011;9108;53.204;10.424;2023-07-31T20:27:43;7.78;;;5.38;;
17965;SDS011;9108;53.204;10.424;2023-07-31T20:30:12;8.55;;;5.38;;
17965;SDS011;9108;53.204;10.424;2023-07-31T20:32:39;10.90;;;5.50;;
17965;SDS011;9108;53.204;10.424;2023-07-31T20:35:07;8.48;;;5.18;;
17965;SDS011;9108;53.204;10.424;2023-07-31T20:37:34;7.35;;;4.72;;
17965;SDS011;9108;53.204;10.424;2023-07-31T20:40:04;7.00;;;4.57;;
17965;SDS011;9108;53.204;10.424;2023-07-31T20:42:32;6.82;;;4.43;;
17965;SDS011;9108;53.204;10.424;2023-07-31T20:44:59;8.00;;;4.22;;
17965;SDS011;9108;53.204;10.424;2023-07-31T20:47:28;6.65;;;4.25;;
17965;SDS011;9108;53.204;10.424;2023-07-31T20:49:55;10.00;;;4.50;;
17965;SDS011;9108;53.204;10.424;2023-07-31T20:52:34;9.48;;;4.40;;
17965;SDS011;9108;53.204;10.424;2023-07-31T20:55:05;7.70;;;4.23;;
17965;SDS011;9108;53.204;10.424;2023-07-31T20:57:34;7.57;;;4.28;;
17965;SDS011;9108;53.204;10.424;2023-07-31T21:00:06;7.00;;;4.00;;
17965;SDS011;9108;53.204;10.424;2023-07-31T21:02:36;5.75;;;3.60;;
17965;SDS011;9108;53.204;10.424;2023-07-31T21:05:06;7.88;;;3.80;;
17965;SDS011;9108;53.204;10.424;2023-07-31T21:07:33;7.05;;;3.80;;
17965;SDS011;9108;53.204;10.424;2023-07-31T21:10:01;5.95;;;3.90;;
17965;SDS011;9108;53.204;10.424;2023-07-31T21:12:29;7.28;;;4.10;;
17965;SDS011;9108;53.204;10.424;2023-07-31T21:14:56;6.72;;;4.20;;
17965;SDS011;9108;53.204;10.424;2023-07-31T21:17:24;10.52;;;4.50;;
17965;SDS011;9108;53.204;10.424;2023-07-31T21:19:54;11.25;;;4.93;;
17965;SDS011;9108;53.204;10.424;2023-07-31T21:34:23;10.40;;;5.60;;
17965;SDS011;9108;53.204;10.424;2023-07-31T21:36:52;8.82;;;5.50;;
17965;SDS011;9108;53.204;10.424;2023-07-31T21:39:19;9.25;;;5.70;;
17965;SDS011;9108;53.204;10.424;2023-07-31T21:41:46;9.57;;;6.07;;
17965;SDS011;9108;53.204;10.424;2023-07-31T21:44:13;9.60;;;5.75;;
17965;SDS011;9108;53.204;10.424;2023-07-31T21:46:40;11.98;;;5.95;;
17965;SDS011;9108;53.204;10.424;2023-07-31T21:49:07;10.43;;;5.78;;
17965;SDS011;9108;53.204;10.424;2023-07-31T21:51:35;9.75;;;5.85;;
17965;SDS011;9108;53.204;10.424;2023-07-31T21:54:03;11.27;;;5.80;;
17965;SDS011;9108;53.204;10.424;2023-07-31T21:56:30;9.73;;;5.10;;
17965;SDS011;9108;53.204;10.424;2023-07-31T21:58:57;9.90;;;5.60;;
17965;SDS011;9108;53.204;10.424;2023-07-31T22:01:24;10.32;;;5.30;;
17965;SDS011;9108;53.204;10.424;2023-07-31T22:03:51;9.95;;;5.57;;
17965;SDS011;9108;53.204;10.424;2023-07-31T22:06:19;9.82;;;5.57;;
17965;SDS011;9108;53.204;10.424;2023-07-31T22:08:46;7.72;;;5.38;;
17965;SDS011;9108;53.204;10.424;2023-07-31T22:11:14;8.25;;;5.13;;
17965;SDS011;9108;53.204;10.424;2023-07-31T22:13:41;7.45;;;5.13;;
17965;SDS011;9108;53.204;10.424;2023-07-31T22:16:08;8.43;;;5.15;;
17965;SDS011;9108;53.204;10.424;2023-07-31T22:18:36;7.93;;;5.40;;
17965;SDS011;9108;53.204;10.424;2023-07-31T22:21:03;7.53;;;5.23;;
17965;SDS011;9108;53.204;10.424;2023-07-31T22:23:30;7.40;;;5.20;;
17965;SDS011;9108;53.204;10.424;2023-07-31T22:25:57;8.25;;;5.43;;
17965;SDS011;9108;53.204;10.424;2023-07-31T22:28:26;8.70;;;5.30;;
17965;SDS011;9108;53.204;10.424;2023-07-31T22:30:53;9.55;;;5.15;;
17965;SDS011;9108;53.204;10.424;2023-07-31T22:33:20;9.82;;;5.00;;
17965;SDS011;9108;53.204;10.424;2023-07-31T22:35:48;7.57;;;5.28;;
17965;SDS011;9108;53.204;10.424;2023-07-31T22:38:16;9.13;;;5.50;;
17965;SDS011;9108;53.204;10.424;2023-07-31T22:40:43;7.38;;;5.40;;
17965;SDS011;9108;53.204;10.424;2023-07-31T22:43:11;8.18;;;5.47;;
17965;SDS011;9108;53.204;10.424;2023-07-31T22:45:45;9.23;;;5.47;;
17965;SDS011;9108;53.204;10.424;2023-07-31T22:48:13;9.30;;;5.63;;
17965;SDS011;9108;53.204;10.424;2023-07-31T22:50:42;7.82;;;5.28;;
17965;SDS011;9108;53.204;10.424;2023-07-31T22:53:10;8.80;;;5.50;;
17965;SDS011;9108;53.204;10.424;2023-07-31T22:55:38;8.40;;;5.32;;
17965;SDS011;9108;53.204;10.424;2023-07-31T22:58:06;9.18;;;5.45;;
17965;SDS011;9108;53.204;10.424;2023-07-31T23:00:35;7.88;;;5.57;;
17965;SDS011;9108;53.204;10.424;2023-07-31T23:03:04;7.60;;;5.25;;
17965;SDS011;9108;53.204;10.424;2023-07-31T23:05:32;7.00;;;5.00;;
17965;SDS011;9108;53.204;10.424;2023-07-31T23:08:00;6.63;;;4.72;;
17965;SDS011;9108;53.204;10.424;2023-07-31T23:10:28;8.77;;;4.70;;
17965;SDS011;9108;53.204;10.424;2023-07-31T23:12:56;8.25;;;4.60;;
17965;SDS011;9108;53.204;10.424;2023-07-31T23:15:24;7.38;;;4.70;;
17965;SDS011;9108;53.204;10.424;2023-07-31T23:17:52;7.03;;;4.20;;
17965;SDS011;9108;53.204;10.424;2023-07-31T23:20:22;7.15;;;4.30;;
17965;SDS011;9108;53.204;10.424;2023-07-31T23:22:52;7.20;;;4.20;;
17965;SDS011;9108;53.204;10.424;2023-07-31T23:25:20;8.38;;;4.38;;
17965;SDS011;9108;53.204;10.424;2023-07-31T23:27:48;6.28;;;4.30;;
17965;SDS011;9108;53.204;10.424;2023-07-31T23:30:15;8.13;;;4.50;;
17965;SDS011;9108;53.204;10.424;2023-07-31T23:32:43;6.22;;;4.38;;
17965;SDS011;9108;53.204;10.424;2023-07-31T23:35:12;7.00;;;4.35;;
17965;SDS011;9108;53.204;10.424;2023-07-31T23:37:41;7.07;;;4.50;;
17965;SDS011;9108;53.204;10.424;2023-07-31T23:40:10;5.97;;;4.30;;
17965;SDS011;9108;53.204;10.424;2023-07-31T23:42:39;6.78;;;4.28;;
17965;SDS011;9108;53.204;10.424;2023-07-31T23:45:06;6.53;;;4.22;;
17965;SDS011;9108;53.204;10.424;2023-07-31T23:47:34;7.88;;;4.38;;
17965;SDS011;9108;53.204;10.424;2023-07-31T23:50:01;5.57;;;4.00;;
17965;SDS011;9108;53.204;10.424;2023-07-31T23:52:28;6.28;;;3.75;;
17965;SDS011;9108;53.204;10.424;2023-07-31T23:55:00;7.80;;;3.90;;
17965;SDS011;9108;53.204;10.424;2023-07-31T23:57:28;5.60;;;3.80;;
17965;SDS011;9108;53.204;10.424;2023-07-31T23:59:55;6.13;;;3.72;;
